Time;durP1;ratioP1;P1;durP2;ratioP2;P2;SDS_P1;SDS_P2;PMS_P1;PMS_P2;Temp;Humidity;BMP_temperature;BMP_pressure;BME280_temperature;BME280_humidity;BME280_pressure;Samples;Min_cycle;Max_cycle;Signal;HPM_P1;HPM_P2
2021/12/25 00:00:33;;;;;;;0.95;0.40;;;;;;;4.02;67.84;96660.06;9807055;30;20551;-81
2021/12/25 00:05:54;;;;;;;1.48;0.55;;;;;;;3.98;67.63;96666.03;9791646;30;20064;-81
2021/12/25 00:11:15;;;;;;;0.93;0.40;;;;;;;3.98;67.75;96673.59;9789248;30;20074;-82
2021/12/25 00:16:37;;;;;;;0.85;0.47;;;;;;;3.93;67.94;96675.28;9786519;30;20060;-81
2021/12/25 00:22:00;;;;;;;1.08;0.60;;;;;;;3.83;67.69;96665.53;9787594;30;20064;-81
2021/12/25 00:32:55;;;;;;;1.42;0.70;;;;;;;3.87;67.78;96680.38;9802398;30;20052;-82
2021/12/25 00:38:16;;;;;;;2.33;0.60;;;;;;;3.97;68.04;96683.16;9792073;30;20053;-81
2021/12/25 00:43:37;;;;;;;1.50;0.52;;;;;;;3.91;68.20;96677.91;9792454;30;20065;-82
2021/12/25 00:48:59;;;;;;;1.08;0.70;;;;;;;3.87;68.53;96683.13;9792241;30;20048;-82
2021/12/25 00:54:20;;;;;;;2.08;1.45;;;;;;;3.87;68.65;96701.72;9793005;30;20049;-83
2021/12/25 00:59:41;;;;;;;1.42;0.65;;;;;;;3.87;67.95;96701.72;9790239;30;20053;-82
2021/12/25 01:05:03;;;;;;;1.70;0.50;;;;;;;3.74;68.01;96708.34;9777237;30;20082;-82
2021/12/25 01:10:25;;;;;;;1.13;0.52;;;;;;;3.61;68.00;96703.94;9776636;30;20060;-83
2021/12/25 01:27:18;;;;;;;1.77;0.55;;;;;;;3.48;68.41;96712.56;9798442;30;20045;-81
2021/12/25 01:50:07;;;;;;;1.33;0.45;;;;;;;3.49;68.93;96744.38;9805831;30;20048;-83
2021/12/25 01:55:29;;;;;;;0.77;0.40;;;;;;;3.50;68.72;96734.06;9783610;30;20184;-82
2021/12/25 02:00:52;;;;;;;1.00;0.50;;;;;;;3.59;68.63;96742.41;9795689;30;20164;-81
2021/12/25 02:06:14;;;;;;;1.37;0.50;;;;;;;3.63;68.47;96753.03;9809797;30;20111;-83
2021/12/25 02:11:35;;;;;;;1.77;0.63;;;;;;;3.55;68.51;96753.13;9796295;30;20131;-81
2021/12/25 02:17:12;;;;;;;2.72;0.50;;;;;;;3.60;68.10;96745.91;9795277;30;20143;-82
2021/12/25 02:22:34;;;;;;;2.10;0.80;;;;;;;3.52;68.05;96759.78;9803613;30;20044;-81
2021/12/25 02:27:55;;;;;;;1.70;0.60;;;;;;;3.49;67.85;96749.19;9795717;30;20049;-82
2021/12/25 02:33:17;;;;;;;2.60;0.75;;;;;;;3.37;67.93;96760.69;9796261;30;20057;-82
2021/12/25 02:38:38;;;;;;;1.20;0.60;;;;;;;3.30;68.20;96758.03;9795333;30;20055;-82
2021/12/25 02:43:59;;;;;;;1.65;0.80;;;;;;;3.25;67.79;96761.75;9796253;30;20064;-83
2021/12/25 02:49:31;;;;;;;2.28;0.85;;;;;;;3.14;67.84;96763.72;9798122;30;20087;-82
2021/12/25 02:54:52;;;;;;;1.17;0.63;;;;;;;3.13;67.55;96772.56;9795648;30;20048;-81
2021/12/25 03:00:13;;;;;;;1.52;0.82;;;;;;;3.16;68.18;96780.44;9795659;30;20133;-83
2021/12/25 03:05:35;;;;;;;1.73;0.90;;;;;;;3.11;68.23;96784.16;9807991;30;20048;-82
2021/12/25 03:10:59;;;;;;;1.57;0.63;;;;;;;3.12;67.80;96784.91;9795700;30;20064;-82
2021/12/25 03:16:20;;;;;;;1.05;0.63;;;;;;;3.08;68.60;96779.78;9797461;30;20504;-82
2021/12/25 03:21:41;;;;;;;1.17;0.50;;;;;;;3.06;68.08;96795.44;9784099;30;20055;-83
2021/12/25 03:27:04;;;;;;;1.77;0.47;;;;;;;2.94;68.10;96803.44;9797072;30;20068;-82
2021/12/25 03:32:25;;;;;;;1.08;0.60;;;;;;;2.80;68.89;96805.06;9784851;30;20052;-83
2021/12/25 03:37:46;;;;;;;0.90;0.55;;;;;;;2.84;68.65;96797.13;9797701;30;20059;-83
2021/12/25 03:43:07;;;;;;;1.17;0.60;;;;;;;2.84;69.29;96816.41;9797051;30;20147;-82
2021/12/25 03:48:45;;;;;;;0.75;0.70;;;;;;;2.74;69.64;96801.81;9795387;30;20069;-82
2021/12/25 03:59:28;;;;;;;1.02;0.70;;;;;;;2.71;69.36;96822.22;9798415;30;20059;-82
2021/12/25 04:04:51;;;;;;;0.98;0.70;;;;;;;2.58;70.03;96803.94;9789121;30;20068;-83
2021/12/25 04:10:12;;;;;;;2.08;1.67;;;;;;;2.14;69.88;96818.22;9804677;30;20135;-82
2021/12/25 04:15:34;;;;;;;1.63;1.50;;;;;;;2.00;71.19;96828.75;9821679;30;20458;-83
2021/12/25 04:20:55;;;;;;;2.13;1.92;;;;;;;1.87;71.08;96831.03;9800583;30;20083;-82
2021/12/25 04:26:20;;;;;;;2.72;2.22;;;;;;;1.79;71.56;96838.59;9800435;30;20059;-82
2021/12/25 04:47:40;;;;;;;3.75;2.90;;;;;;;1.65;72.07;96849.13;9807038;30;20075;-83
2021/12/25 05:05:28;;;;;;;2.85;2.40;;;;;;;1.72;71.99;96860.06;9835064;30;20055;-81
2021/12/25 05:10:57;;;;;;;1.80;1.63;;;;;;;1.65;71.83;96866.38;9831033;30;20113;-82
2021/12/25 05:16:19;;;;;;;2.40;1.70;;;;;;;1.53;71.44;96868.03;9836055;30;20044;-83
2021/12/25 05:21:41;;;;;;;1.92;1.73;;;;;;;1.51;71.51;96878.13;9833401;30;20048;-82
2021/12/25 05:27:02;;;;;;;2.15;1.52;;;;;;;1.41;71.79;96875.97;9833229;30;20059;-82
2021/12/25 05:32:25;;;;;;;1.63;1.38;;;;;;;1.28;72.06;96873.44;9821387;30;20049;-82
2021/12/25 05:37:47;;;;;;;1.42;1.33;;;;;;;1.22;72.42;96892.13;9838569;30;20051;-83
2021/12/25 05:43:25;;;;;;;1.88;1.67;;;;;;;1.19;72.63;96876.75;9829306;30;20057;-83
2021/12/25 05:48:48;;;;;;;2.47;1.92;;;;;;;1.16;72.41;96877.84;9835225;30;20050;-81
2021/12/25 05:54:42;;;;;;;2.67;2.10;;;;;;;1.18;72.78;96891.06;9840611;30;20519;-82
2021/12/25 06:00:24;;;;;;;3.42;2.83;;;;;;;1.32;72.63;96886.78;9799972;30;20068;-81
2021/12/25 06:05:47;;;;;;;2.95;2.60;;;;;;;1.38;72.79;96893.56;9825087;30;20052;-83
2021/12/25 06:11:08;;;;;;;3.50;3.20;;;;;;;1.42;72.71;96898.69;9836493;30;20052;-82
2021/12/25 06:16:29;;;;;;;3.47;2.55;;;;;;;1.49;73.00;96908.94;9839503;30;20039;-83
2021/12/25 06:22:03;;;;;;;3.67;2.53;;;;;;;1.43;72.38;96916.66;9913192;24;20103;-84
2021/12/25 06:27:46;;;;;;;2.60;2.30;;;;;;;1.44;71.64;96929.13;9861714;30;20397;-82
2021/12/25 06:33:22;;;;;;;3.45;2.88;;;;;;;1.38;72.15;96937.56;9867447;30;20089;-83
2021/12/25 06:39:23;;;;;;;4.13;2.70;;;;;;;1.41;72.02;96919.97;9834323;30;20170;-83
2021/12/25 06:45:03;;;;;;;2.30;1.98;;;;;;;1.39;72.30;96917.03;9868731;30;20078;-83
2021/12/25 06:50:27;;;;;;;2.65;1.92;;;;;;;1.43;72.23;96922.88;9904560;30;20104;-82
2021/12/25 06:56:15;;;;;;;2.78;1.98;;;;;;;1.28;71.73;96938.69;9971108;24;20068;-82
2021/12/25 07:01:47;;;;;;;3.25;2.08;;;;;;;1.22;71.96;96935.38;9833092;30;20056;-81
2021/12/25 07:07:30;;;;;;;3.92;2.30;;;;;;;1.22;71.52;96943.63;9853591;30;20052;-83
2021/12/25 07:13:08;;;;;;;2.75;1.95;;;;;;;1.16;71.71;96952.09;9790873;30;20069;-83
2021/12/25 07:18:41;;;;;;;2.97;2.10;;;;;;;1.19;71.68;96950.25;9849853;30;20052;-79
2021/12/25 07:24:16;;;;;;;3.22;2.13;;;;;;;1.27;71.88;96948.97;9935745;24;20071;-82
2021/12/25 07:30:04;;;;;;;4.18;3.05;;;;;;;1.37;70.82;96957.38;9834984;30;20126;-82
2021/12/25 07:35:27;;;;;;;3.95;2.60;;;;;;;1.40;71.70;96957.00;9817704;30;20151;-84
2021/12/25 07:40:50;;;;;;;3.20;2.60;;;;;;;1.50;71.32;96954.41;9816382;30;20072;-83
2021/12/25 07:46:21;;;;;;;3.97;2.50;;;;;;;1.40;71.20;96957.00;9833114;30;20050;-83
2021/12/25 07:51:51;;;;;;;5.65;3.10;;;;;;;1.48;71.77;96972.75;9818282;30;20067;-85
2021/12/25 07:57:13;;;;;;;3.58;2.28;;;;;;;1.53;70.66;96974.56;9818111;30;20053;-83
2021/12/25 08:02:37;;;;;;;3.28;2.20;;;;;;;1.39;70.58;96974.06;9825147;30;20044;-83
2021/12/25 08:08:11;;;;;;;2.95;1.80;;;;;;;1.36;70.64;96973.16;9880520;30;20051;-82
2021/12/25 08:13:33;;;;;;;;;;;;;;;1.44;70.85;96984.13;9855105;30;20044;-82
2021/12/25 08:18:59;;;;;;;2.10;1.67;;;;;;;1.58;70.93;96990.16;9830009;30;19911;-84
2021/12/25 08:24:39;;;;;;;2.80;1.60;;;;;;;1.66;70.48;96988.88;11494202;24;20030;-81
2021/12/25 08:30:26;;;;;;;1.65;1.35;;;;;;;1.67;70.43;96990.34;9799048;30;20071;-84
2021/12/25 08:36:14;;;;;;;3.30;1.45;;;;;;;1.76;70.01;96994.53;9779996;30;20065;-83
2021/12/25 08:41:38;;;;;;;2.80;1.50;;;;;;;1.82;70.30;97000.56;9784499;30;20037;-81
2021/12/25 08:47:01;;;;;;;3.58;1.90;;;;;;;1.94;69.35;97001.66;9748715;30;20049;-84
2021/12/25 08:52:24;;;;;;;2.42;1.80;;;;;;;2.01;69.69;97017.41;9785142;30;20092;-76
2021/12/25 08:57:45;;;;;;;2.92;1.92;;;;;;;1.92;67.16;97015.22;9806462;30;20036;-84
2021/12/25 09:03:40;;;;;;;2.30;1.60;;;;;;;1.92;69.14;97015.22;10638835;24;21244;31
2021/12/25 09:09:05;;;;;;;2.38;1.63;;;;;;;1.85;68.81;97020.78;9794693;30;20286;-85
2021/12/25 09:14:27;;;;;;;3.40;1.92;;;;;;;1.75;68.96;97028.13;9810139;30;20056;-83
2021/12/25 09:19:48;;;;;;;2.90;2.35;;;;;;;1.71;69.49;97017.47;9797172;30;20037;-85
2021/12/25 09:25:16;;;;;;;2.67;2.43;;;;;;;1.76;69.16;97019.31;10522778;24;20095;31
2021/12/25 09:30:58;;;;;;;;;;;;;;;1.91;68.19;97022.03;11738853;24;20234;31
2021/12/25 09:55:35;;;;;;;4.68;2.47;;;;;;;2.01;68.22;97044.94;11467994;24;20116;-81
2021/12/25 10:00:57;;;;;;;4.10;3.08;;;;;;;1.97;68.89;97043.84;10701602;24;20075;-83
2021/12/25 10:06:34;;;;;;;3.80;2.80;;;;;;;1.95;67.99;97047.16;9863152;30;20075;-77
2021/12/25 10:12:03;;;;;;;3.65;2.58;;;;;;;1.88;68.09;97039.66;9863757;30;20044;-77
2021/12/25 10:17:29;;;;;;;5.32;3.00;;;;;;;1.90;67.16;97030.84;9862508;30;20487;-77
2021/12/25 10:23:08;;;;;;;5.45;3.30;;;;;;;1.98;67.57;97040.53;9851100;30;20078;-78
2021/12/25 10:28:33;;;;;;;5.43;3.33;;;;;;;2.05;67.59;97041.09;9864065;30;20051;-78
2021/12/25 10:33:54;;;;;;;5.15;3.10;;;;;;;2.04;67.73;97036.88;9908268;30;20047;-83
2021/12/25 10:39:23;;;;;;;4.50;3.28;;;;;;;2.19;67.54;97039.56;9900940;30;20391;-79
2021/12/25 10:44:50;;;;;;;5.13;3.28;;;;;;;2.20;67.13;97035.53;9868044;30;20051;-78
2021/12/25 10:50:13;;;;;;;5.30;3.38;;;;;;;2.28;66.75;97034.22;9862457;30;20132;-78
2021/12/25 10:55:35;;;;;;;4.63;3.47;;;;;;;2.20;67.05;97032.78;9854676;30;20051;-81
2021/12/25 11:00:57;;;;;;;7.35;3.33;;;;;;;2.24;67.30;97033.16;9889058;30;20063;-82
2021/12/25 11:06:18;;;;;;;5.55;2.95;;;;;;;2.15;66.31;97042.72;9884867;30;20052;-81
2021/12/25 11:11:39;;;;;;;5.47;2.95;;;;;;;1.95;66.23;97038.91;9862964;30;20068;-84
2021/12/25 11:17:21;;;;;;;7.30;3.00;;;;;;;1.69;66.34;97050.31;9848389;30;20066;-77
2021/12/25 11:22:46;;;;;;;4.82;2.83;;;;;;;1.73;66.63;97042.41;9837885;30;20044;-81
2021/12/25 11:28:09;;;;;;;5.45;3.25;;;;;;;1.61;66.57;97046.81;9851510;30;20048;-82
2021/12/25 11:33:30;;;;;;;5.57;3.25;;;;;;;1.64;67.11;97040.22;9825698;30;20056;-77
2021/12/25 11:38:51;;;;;;;5.50;2.95;;;;;;;1.54;66.88;97037.28;9810697;30;20060;-76
2021/12/25 11:44:51;;;;;;;5.38;2.95;;;;;;;1.56;66.47;97032.00;9798419;30;20537;-76
2021/12/25 11:50:20;;;;;;;6.32;2.65;;;;;;;1.50;66.71;97027.94;9801894;30;20454;-78
2021/12/25 12:01:11;;;;;;;5.63;3.08;;;;;;;1.59;65.81;97032.91;9811634;30;20057;-78
2021/12/25 12:06:47;;;;;;;5.20;3.30;;;;;;;1.55;66.47;97047.03;9821926;30;20102;-79
2021/12/25 12:12:26;;;;;;;5.55;2.92;;;;;;;1.76;66.33;97033.06;9822097;30;20048;-78
2021/12/25 12:18:25;;;;;;;6.90;2.72;;;;;;;2.08;65.90;97034.47;9815107;30;20546;-78
2021/12/25 12:29:13;;;;;;;6.15;2.83;;;;;;;1.78;65.38;97027.75;9809846;30;20501;-78
2021/12/25 12:34:36;;;;;;;6.25;3.42;;;;;;;1.60;65.25;97048.13;9821736;30;20063;-78
2021/12/25 12:40:00;;;;;;;7.30;2.92;;;;;;;1.46;65.55;97052.34;9809537;30;20056;-78
2021/12/25 12:45:26;;;;;;;5.50;3.20;;;;;;;1.42;65.33;97052.69;9821555;30;20052;-78
2021/12/25 12:50:49;;;;;;;6.95;3.60;;;;;;;1.43;66.15;97065.16;9782056;30;20477;-79
2021/12/25 12:56:12;;;;;;;7.30;3.72;;;;;;;1.26;65.61;97065.72;9783377;30;20044;-78
2021/12/25 13:01:34;;;;;;;7.68;3.90;;;;;;;1.05;65.99;97079.59;9785275;30;20532;-79
2021/12/25 13:06:56;;;;;;;5.63;3.20;;;;;;;1.14;66.05;97070.81;9803180;30;20103;-78
2021/12/25 13:12:38;;;;;;;7.50;4.00;;;;;;;1.17;66.21;97076.53;9777824;30;20110;-78
2021/12/25 13:18:01;;;;;;;5.68;3.25;;;;;;;1.08;66.40;97075.03;9790620;30;20056;-78
2021/12/25 13:23:28;;;;;;;8.07;3.95;;;;;;;1.11;66.20;97068.44;9795951;30;20048;-77
2021/12/25 13:28:51;;;;;;;7.90;4.55;;;;;;;1.24;66.17;97084.75;9807840;30;20045;-78
2021/12/25 13:34:15;;;;;;;7.10;4.32;;;;;;;1.11;65.99;97087.69;9819207;30;20098;-79
2021/12/25 13:39:39;;;;;;;8.23;4.57;;;;;;;1.00;65.61;97096.28;9799433;30;20136;-77
2021/12/25 13:45:02;;;;;;;7.65;4.25;;;;;;;0.93;66.10;97114.19;9818892;30;20053;-84
2021/12/25 13:50:25;;;;;;;9.18;4.97;;;;;;;1.01;66.47;97114.22;9817577;30;20057;-81
2021/12/25 13:55:48;;;;;;;9.88;5.03;;;;;;;1.10;66.80;97110.94;9788599;30;20055;-79
2021/12/25 14:01:09;;;;;;;10.38;5.25;;;;;;;1.18;65.63;97106.22;9779599;30;20126;-77
2021/12/25 14:06:31;;;;;;;7.53;5.03;;;;;;;1.04;66.06;97124.13;9783606;30;20378;-80
2021/12/25 14:11:53;;;;;;;6.78;4.47;;;;;;;0.96;65.97;97123.34;9789724;30;20412;-80
2021/12/25 14:17:14;;;;;;;7.43;4.68;;;;;;;0.86;65.58;97123.88;9791320;30;20048;-78
2021/12/25 14:22:35;;;;;;;8.20;4.22;;;;;;;0.96;65.84;97143.31;9765184;30;20060;-77
2021/12/25 14:28:09;;;;;;;8.75;4.60;;;;;;;0.93;65.90;97149.91;9776129;30;20056;-77
2021/12/25 14:33:32;;;;;;;7.20;4.07;;;;;;;0.73;65.50;97148.00;9766670;30;20056;-80
2021/12/25 14:38:52;;;;;;;10.48;4.43;;;;;;;0.73;65.59;97150.75;9777241;30;20048;-78
2021/12/25 14:44:25;;;;;;;6.28;3.55;;;;;;;0.65;63.90;97147.97;9787556;30;20570;-81
2021/12/25 14:49:48;;;;;;;5.60;3.40;;;;;;;0.52;63.70;97153.59;9802884;30;20109;-80
2021/12/25 14:55:16;;;;;;;6.60;3.63;;;;;;;0.46;63.86;97166.72;9808493;30;20075;-82
2021/12/25 15:00:37;;;;;;;6.30;3.38;;;;;;;0.46;64.20;97177.72;9808185;30;20261;-81
2021/12/25 15:05:58;;;;;;;7.68;4.30;;;;;;;0.41;63.50;97167.63;9809203;30;20045;-82
2021/12/25 15:11:20;;;;;;;6.40;3.88;;;;;;;0.33;63.23;97170.31;9808373;30;20052;-82
2021/12/25 15:16:52;;;;;;;6.55;3.65;;;;;;;0.38;61.80;97174.91;9809624;30;20132;-82
2021/12/25 15:22:18;;;;;;;7.57;4.00;;;;;;;0.27;62.09;97175.94;9840777;30;20044;-80
2021/12/25 15:27:50;;;;;;;6.78;4.00;;;;;;;0.28;62.46;97174.66;9806088;30;20056;-78
2021/12/25 15:33:12;;;;;;;9.38;4.72;;;;;;;0.32;63.89;97179.84;9845393;30;20064;-81
2021/12/25 15:38:34;;;;;;;9.13;4.75;;;;;;;0.45;64.19;97189.97;9855660;30;20059;-82
2021/12/25 15:43:58;;;;;;;10.93;5.22;;;;;;;0.55;64.23;97185.47;9844126;30;20056;-82
2021/12/25 15:49:19;;;;;;;8.68;4.93;;;;;;;0.48;64.30;97203.38;9842647;30;20055;-80
2021/12/25 15:54:40;;;;;;;8.10;4.35;;;;;;;0.38;64.15;97210.59;9842283;30;20055;-81
2021/12/25 16:00:07;;;;;;;7.90;4.68;;;;;;;0.32;64.81;97207.28;9842154;30;20133;-82
2021/12/25 16:05:28;;;;;;;8.43;4.80;;;;;;;0.33;64.61;97208.03;9841340;30;20107;-81
2021/12/25 16:10:49;;;;;;;10.45;5.85;;;;;;;0.26;63.44;97214.91;9838490;30;20484;-81
2021/12/25 16:16:10;;;;;;;10.30;5.65;;;;;;;0.26;63.63;97231.41;9829693;30;20119;-79
2021/12/25 16:21:32;;;;;;;8.25;4.90;;;;;;;0.36;62.43;97234.38;9822848;30;20052;-80
2021/12/25 16:26:53;;;;;;;7.18;3.40;;;;;;;0.30;60.86;97237.28;9847353;30;20144;-80
2021/12/25 16:32:14;;;;;;;4.70;2.28;;;;;;;0.23;61.26;97238.69;9835683;30;20068;-80
2021/12/25 16:37:35;;;;;;;5.88;2.80;;;;;;;0.20;59.45;97231.53;9836258;30;20140;-80
2021/12/25 16:42:56;;;;;;;6.13;2.80;;;;;;;0.19;59.14;97243.81;9834757;30;20060;-80
2021/12/25 16:48:17;;;;;;;6.25;3.13;;;;;;;0.16;58.09;97250.34;9812357;30;20458;-76
2021/12/25 16:53:38;;;;;;;5.55;2.95;;;;;;;0.21;59.01;97257.72;9826550;30;20105;-80
2021/12/25 16:58:59;;;;;;;8.65;3.75;;;;;;;0.35;56.56;97260.38;9819677;30;20050;-81
2021/12/25 17:04:21;;;;;;;9.63;4.18;;;;;;;0.29;57.19;97268.78;9837024;30;20044;-79
2021/12/25 17:09:47;;;;;;;10.48;4.05;;;;;;;0.22;55.05;97264.69;9820215;30;20162;-78
2021/12/25 17:15:10;;;;;;;7.30;3.60;;;;;;;0.19;56.90;97260.28;9828740;30;20058;-79
2021/12/25 17:20:33;;;;;;;7.07;3.63;;;;;;;0.25;56.59;97268.34;9818830;30;20067;-76
2021/12/25 17:25:54;;;;;;;6.68;3.08;;;;;;;0.16;54.15;97261.31;9815825;30;20058;-77
2021/12/25 17:31:18;;;;;;;8.30;4.32;;;;;;;0.11;55.57;97261.47;9816461;30;20056;-77
2021/12/25 17:36:42;;;;;;;7.93;3.72;;;;;;;0.04;54.08;97264.88;9827931;30;20049;-78
2021/12/25 17:42:08;;;;;;;9.10;3.58;;;;;;;-0.01;54.89;97264.47;9816489;30;20051;-78
2021/12/25 17:47:29;;;;;;;7.88;3.83;;;;;;;-0.18;55.43;97266.16;9818280;30;20052;-77
2021/12/25 17:52:49;;;;;;;9.73;3.95;;;;;;;-0.27;55.46;97283.06;9817541;30;20156;-81
2021/12/25 17:58:11;;;;;;;6.97;3.45;;;;;;;-0.44;55.78;97281.41;9816015;30;20048;-78
2021/12/25 18:03:32;;;;;;;8.90;3.88;;;;;;;-0.56;56.11;97291.16;9814108;30;20523;-78
2021/12/25 18:08:56;;;;;;;10.07;4.25;;;;;;;-0.79;55.59;97298.34;9813551;30;20094;-76
2021/12/25 18:14:17;;;;;;;10.77;5.20;;;;;;;-0.91;54.52;97293.09;9815513;30;20052;-76
2021/12/25 18:19:37;;;;;;;9.93;4.72;;;;;;;-0.93;55.96;97294.88;9813560;30;20052;-77
2021/12/25 18:24:59;;;;;;;9.98;4.65;;;;;;;-1.03;56.09;97289.09;9817862;30;20496;-79
2021/12/25 18:30:22;;;;;;;7.93;4.10;;;;;;;-1.18;56.45;97297.09;9814820;30;20484;-77
2021/12/25 18:35:43;;;;;;;10.88;4.93;;;;;;;-1.30;56.86;97296.56;9806678;30;20052;-77
2021/12/25 18:41:06;;;;;;;11.20;5.82;;;;;;;-1.32;57.16;97292.88;9837038;30;20052;-80
2021/12/25 18:46:28;;;;;;;13.00;5.53;;;;;;;-1.33;57.95;97308.56;9827041;30;20597;-80
2021/12/25 18:51:51;;;;;;;12.45;6.47;;;;;;;-1.41;58.63;97317.94;9829772;30;20493;-81
2021/12/25 18:57:12;;;;;;;15.80;7.47;;;;;;;-1.51;59.36;97325.81;9843251;30;20416;-76
2021/12/25 19:02:32;;;;;;;15.48;7.22;;;;;;;-1.50;60.13;97319.81;9812141;30;20409;-76
2021/12/25 19:07:54;;;;;;;14.57;7.10;;;;;;;-1.47;59.72;97318.75;9812000;30;20059;-76
2021/12/25 19:13:15;;;;;;;15.45;7.45;;;;;;;-1.33;59.81;97324.28;9814382;30;20052;-80
2021/12/25 19:18:38;;;;;;;15.55;7.70;;;;;;;-1.23;60.58;97328.06;9812375;30;20048;-76
2021/12/25 19:24:00;;;;;;;17.13;9.35;;;;;;;-1.11;60.39;97337.56;9812200;30;20492;-76
2021/12/25 19:29:21;;;;;;;20.05;9.13;;;;;;;-1.01;60.39;97324.91;9798908;30;20463;-75
2021/12/25 19:34:42;;;;;;;19.13;8.15;;;;;;;-1.00;60.44;97331.13;9810899;30;20051;-76
2021/12/25 19:40:04;;;;;;;20.17;8.43;;;;;;;-1.05;58.51;97329.25;9810694;30;20079;-76
2021/12/25 19:45:27;;;;;;;15.13;6.82;;;;;;;-1.19;56.87;97331.22;9798355;30;20048;-76
2021/12/25 19:50:51;;;;;;;15.13;6.75;;;;;;;-1.46;57.54;97335.91;9810766;30;20048;-76
2021/12/25 19:56:12;;;;;;;16.92;7.47;;;;;;;-1.67;58.02;97340.50;9810263;30;20058;-76
2021/12/25 20:01:33;;;;;;;14.70;7.32;;;;;;;-1.83;59.82;97347.72;9809906;30;20166;-76
2021/12/25 20:06:55;;;;;;;15.68;7.55;;;;;;;-1.90;59.99;97351.81;9809903;30;20052;-76
2021/12/25 20:12:16;;;;;;;17.90;9.10;;;;;;;-2.09;60.59;97346.34;9809788;30;20055;-76
2021/12/25 20:17:38;;;;;;;15.75;8.10;;;;;;;-2.18;60.81;97356.94;9809855;30;20129;-76
2021/12/25 20:22:59;;;;;;;18.40;7.75;;;;;;;-2.22;60.41;97365.44;9821597;30;20048;-76
2021/12/25 20:28:21;;;;;;;17.55;7.57;;;;;;;-2.30;60.42;97364.53;9808890;30;20381;-76
2021/12/25 20:33:42;;;;;;;15.57;6.90;;;;;;;-2.40;59.79;97363.44;9809868;30;20060;-76
2021/12/25 20:39:03;;;;;;;15.10;7.28;;;;;;;-2.48;59.64;97357.06;9809479;30;20062;-76
2021/12/25 20:49:45;;;;;;;16.58;7.07;;;;;;;-2.56;58.24;97356.19;9808917;30;20143;-75
2021/12/25 20:55:06;;;;;;;17.15;7.35;;;;;;;-2.63;58.45;97360.22;9796603;30;20085;-76
2021/12/25 21:00:30;;;;;;;15.02;6.75;;;;;;;-2.69;58.34;97351.38;9808961;30;20408;-76
2021/12/25 21:05:53;;;;;;;15.07;6.63;;;;;;;-2.82;57.28;97348.53;9808971;30;20496;-76
2021/12/25 21:11:14;;;;;;;14.07;6.70;;;;;;;-2.86;58.13;97353.53;9808746;30;20083;-76
2021/12/25 21:16:35;;;;;;;20.20;7.88;;;;;;;-2.92;58.22;97356.31;9808592;30;20503;-76
2021/12/25 21:21:56;;;;;;;17.02;7.72;;;;;;;-2.97;58.22;97359.88;9808397;30;20127;-76
2021/12/25 21:27:18;;;;;;;14.02;6.82;;;;;;;-2.99;58.04;97352.19;9796574;30;20095;-76
2021/12/25 21:32:39;;;;;;;17.85;7.40;;;;;;;-3.17;57.98;97359.06;9796177;30;20064;-79
2021/12/25 21:38:00;;;;;;;14.23;6.72;;;;;;;-3.18;58.41;97363.06;9812732;30;20400;-79
2021/12/25 21:43:22;;;;;;;14.30;6.50;;;;;;;-3.29;58.44;97356.94;9813854;30;20488;-79
2021/12/25 21:48:42;;;;;;;25.40;8.05;;;;;;;-3.30;58.99;97366.38;9824326;30;20050;-79
2021/12/25 21:54:03;;;;;;;15.77;7.35;;;;;;;-3.32;58.86;97366.16;9813824;30;20052;-79
2021/12/25 21:59:24;;;;;;;15.88;6.72;;;;;;;-3.35;58.79;97376.13;9792444;30;20067;-79
2021/12/25 22:04:47;;;;;;;14.45;6.75;;;;;;;-3.37;58.48;97373.16;9792101;30;20052;-79
2021/12/25 22:10:12;;;;;;;18.98;7.10;;;;;;;-3.44;59.04;97370.25;9816284;30;20049;-79
2021/12/25 22:15:34;;;;;;;17.73;6.75;;;;;;;-3.46;58.93;97368.78;9810661;30;20059;-79
2021/12/25 22:20:55;;;;;;;16.08;7.63;;;;;;;-3.50;59.00;97381.19;9794294;30;20060;-79
2021/12/25 22:26:17;;;;;;;16.50;7.38;;;;;;;-3.41;58.94;97374.69;9779248;30;20139;-79
2021/12/25 22:31:38;;;;;;;14.70;6.63;;;;;;;-3.17;58.66;97364.53;9787219;30;20049;-79
2021/12/25 22:36:59;;;;;;;20.10;7.35;;;;;;;-3.13;58.60;97368.97;9776955;30;20096;-79
2021/12/25 22:42:19;;;;;;;17.08;8.25;;;;;;;-3.04;58.44;97365.91;9764358;30;20079;-79
2021/12/25 22:47:41;;;;;;;17.23;6.95;;;;;;;-3.12;58.73;97354.78;9787752;30;20056;-79
2021/12/25 22:53:03;;;;;;;18.73;8.20;;;;;;;-3.21;59.43;97358.59;9776650;30;20056;-79
2021/12/25 22:58:25;;;;;;;16.05;6.78;;;;;;;-3.27;59.31;97352.47;9764005;30;20052;-79
2021/12/25 23:03:48;;;;;;;16.55;7.65;;;;;;;-3.30;59.75;97350.00;9808818;24;20160;-79
2021/12/25 23:09:10;;;;;;;16.83;7.70;;;;;;;-3.53;59.45;97352.22;9824325;30;20052;-79
2021/12/25 23:14:32;;;;;;;15.05;7.75;;;;;;;-3.55;59.45;97357.44;9823736;30;20048;-79
2021/12/25 23:19:54;;;;;;;16.35;7.95;;;;;;;-3.66;60.03;97350.09;9811022;30;20054;-79
2021/12/25 23:25:17;;;;;;;16.57;7.57;;;;;;;-3.72;60.10;97362.28;9823556;30;20052;-79
2021/12/25 23:30:40;;;;;;;17.27;7.28;;;;;;;-3.82;60.77;97365.31;9810882;30;20052;-79
2021/12/25 23:36:00;;;;;;;19.67;8.43;;;;;;;-3.96;60.36;97373.84;9810723;30;20119;-79
2021/12/25 23:41:22;;;;;;;19.20;9.07;;;;;;;-4.03;60.44;97364.97;9810607;30;20151;-79
2021/12/25 23:46:43;;;;;;;21.10;8.00;;;;;;;-4.09;60.54;97356.09;9810615;30;20108;-79
2021/12/25 23:52:20;;;;;;;17.13;7.80;;;;;;;-4.09;60.69;97355.34;9812024;30;20060;-79
2021/12/25 23:57:41;;;;;;;18.23;7.85;;;;;;;-4.11;60.75;97346.94;9810218;30;20471;-79
